Minersville, Utah
Current Conditions -  °F | °C
As of 6:52 AM on Saturday 25 Oct 2014 (Local Time) from KMLF Reporting Station
Clear Clear  
Wind Chill: 34°   Ceiling: Unl
Heat Index: 40°   Visibility: 10mi
Dew Point: 29°   Wind: 8mph
Humidity: 65%   Direction: 200°SSW
Pressure: 30.16"   Gusts: NA
Location:  38.21°N, 112.92°W
Report Text: KMLF 251252Z AUTO 20007KT 10SM CLR 04/M02 A3016 RMK AO2 SLP177 T00441017 TSNO
Loading
Personal Weather Stations






























Interactive Weather Map
Tropical Storm Tracking
New forecast layout! Learn more

10-Day Weather Forecast

Advertisements
Track Severe Weather on mobile